Terminal Aerodrome Forecast
Issued by NWS Mt. Holly, NJ

Home | Current Version | Previous Version | Text Only | Print | Product List | Glossary On
Versions: 1 2 3 4 5 6 7 8 9 10 11 12 13 14 15 16 17 18 19 20 21 22 23 24 25
000
FTUS41 KPHI 221600 AAB
TAFRDG
TAF AMD
KRDG 221602Z 2216/2312 07004KT P6SM OVC019
      TEMPO 2216/2217 FEW010 OVC021
     FM221700 08004KT P6SM -SHRA BKN025
     FM230200 12005KT P6SM OVC015
     FM230800 10004KT 5SM BR VCSH OVC007=

USA.gov is the U.S. government's official web portal to all federal, state and local government web resources and services.